sensor_id;sensor_type;location;lat;lon;timestamp;pressure;altitude;pressure_sealevel;temperature;humidity
54918;BME280;40818;50.562;7.454;2023-05-08T00:09:14;98086.41;;;12.57;100.00
54918;BME280;40818;50.562;7.454;2023-05-08T00:19:20;98088.81;;;12.60;100.00
54918;BME280;40818;50.562;7.454;2023-05-08T00:40:09;98091.31;;;12.49;100.00
54918;BME280;40818;50.562;7.454;2023-05-08T00:50:13;98094.22;;;12.57;100.00
54918;BME280;40818;50.562;7.454;2023-05-08T01:00:19;98106.09;;;12.49;100.00
54918;BME280;40818;50.562;7.454;2023-05-08T01:10:29;98108.28;;;12.55;100.00
54918;BME280;40818;50.562;7.454;2023-05-08T01:20:45;98110.69;;;12.58;100.00
54918;BME280;40818;50.562;7.454;2023-05-08T01:31:07;98116.47;;;12.23;100.00
54918;BME280;40818;50.562;7.454;2023-05-08T01:41:24;98110.53;;;11.93;100.00
54918;BME280;40818;50.562;7.454;2023-05-08T01:51:30;98113.09;;;11.53;100.00
54918;BME280;40818;50.562;7.454;2023-05-08T02:01:41;98124.25;;;11.55;100.00
54918;BME280;40818;50.562;7.454;2023-05-08T02:11:48;98120.34;;;11.48;100.00
54918;BME280;40818;50.562;7.454;2023-05-08T02:21:56;98122.63;;;11.25;100.00
54918;BME280;40818;50.562;7.454;2023-05-08T02:32:01;98129.09;;;11.33;100.00
54918;BME280;40818;50.562;7.454;2023-05-08T02:42:08;98140.06;;;11.38;100.00
54918;BME280;40818;50.562;7.454;2023-05-08T02:52:12;98148.25;;;11.17;100.00
54918;BME280;40818;50.562;7.454;2023-05-08T03:02:27;98138.50;;;11.21;100.00
54918;BME280;40818;50.562;7.454;2023-05-08T03:12:37;98144.06;;;11.15;100.00
54918;BME280;40818;50.562;7.454;2023-05-08T03:22:46;98147.72;;;11.12;100.00
54918;BME280;40818;50.562;7.454;2023-05-08T03:32:51;98143.63;;;10.79;100.00
54918;BME280;40818;50.562;7.454;2023-05-08T03:42:59;98147.13;;;10.64;100.00
54918;BME280;40818;50.562;7.454;2023-05-08T03:53:04;98145.09;;;10.83;100.00
54918;BME280;40818;50.562;7.454;2023-05-08T04:03:19;98146.31;;;10.78;100.00
54918;BME280;40818;50.562;7.454;2023-05-08T04:13:26;98154.63;;;10.68;100.00
54918;BME280;40818;50.562;7.454;2023-05-08T04:23:34;98159.00;;;10.82;100.00
54918;BME280;40818;50.562;7.454;2023-05-08T04:33:38;98169.94;;;10.73;100.00
54918;BME280;40818;50.562;7.454;2023-05-08T04:43:44;98177.09;;;10.69;100.00
54918;BME280;40818;50.562;7.454;2023-05-08T04:53:48;98182.19;;;10.71;100.00
54918;BME280;40818;50.562;7.454;2023-05-08T05:03:54;98189.41;;;10.66;100.00
54918;BME280;40818;50.562;7.454;2023-05-08T05:13:58;98197.03;;;10.83;100.00
54918;BME280;40818;50.562;7.454;2023-05-08T05:24:05;98188.69;;;10.78;100.00
54918;BME280;40818;50.562;7.454;2023-05-08T05:34:10;98188.03;;;10.74;100.00
54918;BME280;40818;50.562;7.454;2023-05-08T05:44:17;98191.97;;;10.51;100.00
54918;BME280;40818;50.562;7.454;2023-05-08T05:54:21;98207.56;;;10.51;100.00
54918;BME280;40818;50.562;7.454;2023-05-08T06:04:27;98214.56;;;10.49;100.00
54918;BME280;40818;50.562;7.454;2023-05-08T06:14:31;98209.53;;;10.62;100.00
54918;BME280;40818;50.562;7.454;2023-05-08T06:24:37;98205.94;;;10.79;100.00
54918;BME280;40818;50.562;7.454;2023-05-08T06:34:40;98213.22;;;11.03;100.00
54918;BME280;40818;50.562;7.454;2023-05-08T06:44:46;98229.38;;;11.22;100.00
54918;BME280;40818;50.562;7.454;2023-05-08T06:54:50;98230.31;;;11.36;100.00
54918;BME280;40818;50.562;7.454;2023-05-08T07:04:56;98230.31;;;11.36;100.00
54918;BME280;40818;50.562;7.454;2023-05-08T07:14:59;98240.50;;;11.68;100.00
54918;BME280;40818;50.562;7.454;2023-05-08T07:25:07;98242.91;;;11.56;100.00
54918;BME280;40818;50.562;7.454;2023-05-08T07:35:10;98246.34;;;11.42;100.00
54918;BME280;40818;50.562;7.454;2023-05-08T07:45:17;98249.19;;;11.09;100.00
54918;BME280;40818;50.562;7.454;2023-05-08T07:55:20;98258.38;;;10.86;100.00
54918;BME280;40818;50.562;7.454;2023-05-08T08:05:26;98245.94;;;10.91;100.00
54918;BME280;40818;50.562;7.454;2023-05-08T08:15:30;98250.22;;;10.92;100.00
54918;BME280;40818;50.562;7.454;2023-05-08T08:25:36;98249.41;;;11.06;100.00
54918;BME280;40818;50.562;7.454;2023-05-08T08:35:39;98256.19;;;11.23;100.00
54918;BME280;40818;50.562;7.454;2023-05-08T08:45:45;98261.50;;;11.50;100.00
54918;BME280;40818;50.562;7.454;2023-05-08T08:55:49;98252.16;;;12.04;100.00
54918;BME280;40818;50.562;7.454;2023-05-08T09:05:58;98256.06;;;11.97;100.00
54918;BME280;40818;50.562;7.454;2023-05-08T09:16:02;98255.19;;;12.25;100.00
54918;BME280;40818;50.562;7.454;2023-05-08T09:26:08;98258.78;;;12.50;100.00
54918;BME280;40818;50.562;7.454;2023-05-08T09:36:26;98250.63;;;12.69;100.00
54918;BME280;40818;50.562;7.454;2023-05-08T09:46:34;98266.56;;;12.77;100.00
54918;BME280;40818;50.562;7.454;2023-05-08T09:56:38;98269.13;;;13.17;100.00
54918;BME280;40818;50.562;7.454;2023-05-08T10:06:55;98277.72;;;13.45;100.00
54918;BME280;40818;50.562;7.454;2023-05-08T10:17:02;98273.72;;;13.78;100.00
54918;BME280;40818;50.562;7.454;2023-05-08T10:27:16;98279.66;;;14.17;100.00
54918;BME280;40818;50.562;7.454;2023-05-08T10:37:24;98267.22;;;14.45;100.00
54918;BME280;40818;50.562;7.454;2023-05-08T10:47:38;98276.91;;;14.80;100.00
54918;BME280;40818;50.562;7.454;2023-05-08T10:58:01;98266.88;;;15.21;100.00
54918;BME280;40818;50.562;7.454;2023-05-08T11:08:13;98251.31;;;15.42;100.00
54918;BME280;40818;50.562;7.454;2023-05-08T11:18:17;98241.03;;;14.93;100.00
54918;BME280;40818;50.562;7.454;2023-05-08T11:28:23;98249.50;;;14.37;100.00
54918;BME280;40818;50.562;7.454;2023-05-08T11:38:30;98248.75;;;14.24;100.00
54918;BME280;40818;50.562;7.454;2023-05-08T11:48:38;98238.00;;;14.40;100.00
54918;BME280;40818;50.562;7.454;2023-05-08T11:58:42;98242.47;;;14.97;100.00
54918;BME280;40818;50.562;7.454;2023-05-08T12:08:48;98234.81;;;15.30;100.00
54918;BME280;40818;50.562;7.454;2023-05-08T12:18:52;98222.78;;;15.27;100.00
54918;BME280;40818;50.562;7.454;2023-05-08T12:29:01;98220.59;;;16.00;100.00
54918;BME280;40818;50.562;7.454;2023-05-08T12:39:08;98208.63;;;15.86;100.00
54918;BME280;40818;50.562;7.454;2023-05-08T12:49:22;98213.28;;;17.01;100.00
54918;BME280;40818;50.562;7.454;2023-05-08T12:59:28;98203.97;;;17.49;100.00
54918;BME280;40818;50.562;7.454;2023-05-08T13:09:36;98198.03;;;17.47;100.00
54918;BME280;40818;50.562;7.454;2023-05-08T13:19:39;98213.59;;;17.80;100.00
54918;BME280;40818;50.562;7.454;2023-05-08T13:29:45;98213.91;;;17.46;100.00
54918;BME280;40818;50.562;7.454;2023-05-08T13:39:48;98202.03;;;17.42;100.00
54918;BME280;40818;50.562;7.454;2023-05-08T13:49:54;98188.97;;;16.78;100.00
54918;BME280;40818;50.562;7.454;2023-05-08T13:59:58;98186.53;;;16.86;100.00
54918;BME280;40818;50.562;7.454;2023-05-08T14:10:14;98175.47;;;16.41;100.00
54918;BME280;40818;50.562;7.454;2023-05-08T14:20:18;98174.56;;;17.15;100.00
54918;BME280;40818;50.562;7.454;2023-05-08T14:30:24;98160.25;;;16.98;100.00
54918;BME280;40818;50.562;7.454;2023-05-08T14:40:28;98164.00;;;16.95;100.00
54918;BME280;40818;50.562;7.454;2023-05-08T14:50:34;98151.84;;;16.94;100.00
54918;BME280;40818;50.562;7.454;2023-05-08T15:00:37;98149.44;;;16.70;100.00
54918;BME280;40818;50.562;7.454;2023-05-08T15:10:43;98154.16;;;16.45;100.00
54918;BME280;40818;50.562;7.454;2023-05-08T15:20:47;98156.22;;;17.65;100.00
54918;BME280;40818;50.562;7.454;2023-05-08T15:30:53;98164.28;;;16.81;100.00
54918;BME280;40818;50.562;7.454;2023-05-08T15:40:56;98163.34;;;16.82;100.00
54918;BME280;40818;50.562;7.454;2023-05-08T15:51:02;98163.97;;;16.53;100.00
54918;BME280;40818;50.562;7.454;2023-05-08T16:01:06;98157.22;;;16.71;100.00
54918;BME280;40818;50.562;7.454;2023-05-08T16:11:12;98157.44;;;16.26;100.00
54918;BME280;40818;50.562;7.454;2023-05-08T16:21:15;98156.91;;;16.11;100.00
54918;BME280;40818;50.562;7.454;2023-05-08T16:31:21;98147.22;;;16.23;100.00
54918;BME280;40818;50.562;7.454;2023-05-08T16:41:24;98138.13;;;16.06;100.00
54918;BME280;40818;50.562;7.454;2023-05-08T16:51:30;98133.69;;;15.85;100.00
54918;BME280;40818;50.562;7.454;2023-05-08T17:01:34;98124.63;;;15.90;100.00
54918;BME280;40818;50.562;7.454;2023-05-08T17:11:40;98132.00;;;15.73;100.00
54918;BME280;40818;50.562;7.454;2023-05-08T17:21:43;98117.81;;;15.32;100.00
54918;BME280;40818;50.562;7.454;2023-05-08T17:31:49;98139.56;;;15.44;100.00
54918;BME280;40818;50.562;7.454;2023-05-08T17:41:52;98138.59;;;15.33;100.00
54918;BME280;40818;50.562;7.454;2023-05-08T17:51:58;98136.38;;;15.17;100.00
54918;BME280;40818;50.562;7.454;2023-05-08T18:02:02;98136.94;;;15.21;100.00
54918;BME280;40818;50.562;7.454;2023-05-08T18:12:11;98144.56;;;15.01;100.00
54918;BME280;40818;50.562;7.454;2023-05-08T18:22:16;98142.88;;;14.78;100.00
54918;BME280;40818;50.562;7.454;2023-05-08T18:32:22;98147.91;;;14.45;100.00
54918;BME280;40818;50.562;7.454;2023-05-08T18:42:25;98148.00;;;14.32;100.00
54918;BME280;40818;50.562;7.454;2023-05-08T18:52:31;98142.72;;;14.21;100.00
54918;BME280;40818;50.562;7.454;2023-05-08T19:02:34;98139.13;;;14.11;100.00
54918;BME280;40818;50.562;7.454;2023-05-08T19:12:40;98146.72;;;14.14;100.00
54918;BME280;40818;50.562;7.454;2023-05-08T19:22:44;98135.47;;;13.89;100.00
54918;BME280;40818;50.562;7.454;2023-05-08T19:32:51;98130.63;;;13.72;100.00
54918;BME280;40818;50.562;7.454;2023-05-08T19:42:54;98133.34;;;13.70;100.00
54918;BME280;40818;50.562;7.454;2023-05-08T19:53:00;98129.75;;;13.60;100.00
54918;BME280;40818;50.562;7.454;2023-05-08T20:03:04;98123.75;;;13.34;100.00
54918;BME280;40818;50.562;7.454;2023-05-08T20:13:09;98128.97;;;13.21;100.00
54918;BME280;40818;50.562;7.454;2023-05-08T20:23:13;98123.38;;;13.14;100.00
54918;BME280;40818;50.562;7.454;2023-05-08T20:33:19;98129.44;;;13.02;100.00
54918;BME280;40818;50.562;7.454;2023-05-08T20:43:22;98131.19;;;13.01;100.00
54918;BME280;40818;50.562;7.454;2023-05-08T20:53:28;98117.25;;;12.89;100.00
54918;BME280;40818;50.562;7.454;2023-05-08T21:03:32;98128.38;;;12.91;100.00
54918;BME280;40818;50.562;7.454;2023-05-08T21:13:38;98121.72;;;12.87;100.00
54918;BME280;40818;50.562;7.454;2023-05-08T21:23:42;98105.59;;;12.82;100.00
54918;BME280;40818;50.562;7.454;2023-05-08T21:33:48;98098.16;;;12.76;100.00
54918;BME280;40818;50.562;7.454;2023-05-08T21:43:52;98070.59;;;12.48;100.00
54918;BME280;40818;50.562;7.454;2023-05-08T21:53:58;98065.47;;;12.46;100.00
54918;BME280;40818;50.562;7.454;2023-05-08T22:04:01;98073.41;;;12.57;100.00
54918;BME280;40818;50.562;7.454;2023-05-08T22:14:08;98071.31;;;12.62;100.00
54918;BME280;40818;50.562;7.454;2023-05-08T22:24:11;98066.28;;;12.59;100.00
54918;BME280;40818;50.562;7.454;2023-05-08T22:34:17;98051.75;;;12.57;100.00
54918;BME280;40818;50.562;7.454;2023-05-08T22:44:21;98038.78;;;12.55;100.00
54918;BME280;40818;50.562;7.454;2023-05-08T22:54:27;98042.34;;;12.54;100.00
54918;BME280;40818;50.562;7.454;2023-05-08T23:14:36;98021.13;;;12.48;100.00
54918;BME280;40818;50.562;7.454;2023-05-08T23:24:40;98013.22;;;12.23;100.00
54918;BME280;40818;50.562;7.454;2023-05-08T23:34:46;97995.28;;;12.32;100.00
54918;BME280;40818;50.562;7.454;2023-05-08T23:44:49;97983.84;;;12.21;100.00
54918;BME280;40818;50.562;7.454;2023-05-08T23:54:55;97976.66;;;12.25;100.00
